Time;durP1;ratioP1;P1;durP2;ratioP2;P2;SDS_P1;SDS_P2;PMS_P1;PMS_P2;Temp;Humidity;BMP_temperature;BMP_pressure;BME280_temperature;BME280_humidity;BME280_pressure;Samples;Min_cycle;Max_cycle;Signal;HPM_P1;HPM_P2
2022/08/17 00:02:14;;;;;;;31.97;28.03;;;23.00;99.90;;;;;;5022302;28;20208;-50
2022/08/17 00:04:53;;;;;;;31.60;28.23;;;23.10;99.90;;;;;;5022525;28;20217;-50
2022/08/17 00:07:20;;;;;;;31.83;28.50;;;23.10;99.90;;;;;;5016094;28;20267;-51
2022/08/17 00:09:47;;;;;;;32.90;29.40;;;23.20;99.90;;;;;;5022201;28;20662;-50
2022/08/17 00:12:14;;;;;;;31.57;28.33;;;23.20;99.90;;;;;;5021379;28;20634;-50
2022/08/17 00:15:01;;;;;;;32.73;28.40;;;23.20;99.90;;;;;;5022065;28;20209;-50
2022/08/17 00:17:28;;;;;;;29.57;26.53;;;23.20;99.90;;;;;;5021286;28;20665;-51
2022/08/17 00:19:54;;;;;;;31.67;28.30;;;23.20;99.90;;;;;;5021628;28;20214;-50
2022/08/17 00:22:21;;;;;;;30.80;27.40;;;23.30;99.90;;;;;;5022123;28;20207;-49
2022/08/17 00:25:06;;;;;;;30.97;27.87;;;23.30;99.90;;;;;;5021759;28;20231;-51
2022/08/17 00:27:33;;;;;;;31.57;28.37;;;23.20;99.90;;;;;;5021353;28;20206;-50
2022/08/17 00:30:01;;;;;;;29.50;26.70;;;23.20;99.90;;;;;;5020949;28;20215;-51
2022/08/17 00:32:28;;;;;;;31.60;28.20;;;23.20;99.90;;;;;;5018435;28;20215;-51
2022/08/17 00:35:17;;;;;;;31.43;28.43;;;23.20;99.90;;;;;;5022778;28;20219;-50
2022/08/17 00:37:44;;;;;;;30.57;27.43;;;23.10;99.90;;;;;;5021519;28;20236;-51
2022/08/17 00:40:13;;;;;;;30.77;27.57;;;23.10;99.90;;;;;;5021941;28;20212;-51
2022/08/17 00:42:43;;;;;;;30.83;27.57;;;23.10;99.90;;;;;;5021230;28;20216;-51
2022/08/17 00:45:13;;;;;;;31.30;28.07;;;23.10;99.90;;;;;;5016791;28;20216;-51
2022/08/17 00:47:41;;;;;;;31.20;28.10;;;23.20;99.90;;;;;;5020209;28;20205;-51
2022/08/17 00:50:11;;;;;;;31.53;28.10;;;23.10;99.90;;;;;;5021791;28;20569;-52
2022/08/17 00:52:44;;;;;;;29.50;26.53;;;23.20;99.90;;;;;;5014724;28;20669;-52
2022/08/17 00:55:11;;;;;;;30.10;27.00;;;23.20;99.90;;;;;;5018489;28;20239;-52
2022/08/17 00:57:43;;;;;;;30.40;27.27;;;23.20;99.90;;;;;;5021223;28;20555;-51
2022/08/17 01:00:25;;;;;;;34.07;28.60;;;23.20;99.90;;;;;;5018993;28;20267;-50
2022/08/17 01:02:58;;;;;;;30.80;26.70;;;23.20;99.90;;;;;;5020271;28;20240;-51
2022/08/17 01:05:29;;;;;;;29.97;26.77;;;23.30;99.90;;;;;;5022704;28;20205;-52
2022/08/17 01:07:58;;;;;;;29.10;26.20;;;23.30;99.90;;;;;;5017524;28;20683;-50
2022/08/17 01:10:40;;;;;;;29.30;25.27;;;23.30;99.90;;;;;;5020908;28;20207;-51
2022/08/17 01:13:37;;;;;;;29.97;26.87;;;23.40;99.90;;;;;;5021335;28;20545;-51
2022/08/17 01:16:19;;;;;;;28.43;25.43;;;23.30;99.90;;;;;;5021110;28;20228;-49
2022/08/17 01:18:49;;;;;;;30.50;27.30;;;23.30;99.90;;;;;;5020438;28;20254;-51
2022/08/17 01:21:46;;;;;;;29.50;26.47;;;23.20;99.90;;;;;;5020668;28;20579;-50
2022/08/17 01:24:14;;;;;;;29.90;26.80;;;23.30;99.90;;;;;;5021433;28;20581;-48
2022/08/17 01:26:44;;;;;;;29.40;26.40;;;23.30;99.90;;;;;;5020988;28;20205;-52
2022/08/17 01:29:12;;;;;;;28.37;25.70;;;23.20;99.90;;;;;;5020623;28;20276;-51
2022/08/17 01:31:47;;;;;;;30.90;26.70;;;23.30;99.90;;;;;;5019809;28;20654;-51
2022/08/17 01:34:16;;;;;;;29.07;26.00;;;23.20;99.90;;;;;;5020368;28;20208;-50
2022/08/17 01:36:45;;;;;;;31.27;26.07;;;23.20;99.90;;;;;;5018074;28;20243;-51
2022/08/17 01:39:34;;;;;;;29.67;26.07;;;23.10;99.90;;;;;;5019754;28;20620;-51
2022/08/17 01:42:10;;;;;;;29.23;26.03;;;23.10;99.90;;;;;;5021487;28;20576;-50
2022/08/17 01:44:39;;;;;;;28.70;25.80;;;23.10;99.90;;;;;;5020688;28;20214;-51
2022/08/17 01:47:06;;;;;;;29.20;26.17;;;23.10;99.90;;;;;;5017746;28;20282;-52
2022/08/17 01:49:33;;;;;;;31.73;28.50;;;23.10;99.90;;;;;;5020451;28;20604;-52
2022/08/17 01:52:10;;;;;;;29.30;26.33;;;23.00;99.90;;;;;;5020255;28;20680;-51
2022/08/17 01:54:40;;;;;;;31.03;27.77;;;23.10;99.90;;;;;;5019153;28;20769;-50
2022/08/17 01:57:07;;;;;;;30.10;27.00;;;23.20;99.90;;;;;;5020287;28;20651;-52
2022/08/17 01:59:33;;;;;;;33.17;27.67;;;23.20;99.90;;;;;;5020272;28;20264;-51
2022/08/17 02:02:01;;;;;;;32.10;28.87;;;23.10;99.90;;;;;;5019402;28;20206;-51
2022/08/17 02:04:28;;;;;;;31.63;27.50;;;23.10;99.90;;;;;;5019813;28;20263;-50
2022/08/17 02:06:55;;;;;;;30.57;27.30;;;23.10;99.90;;;;;;5019215;28;20207;-52
2022/08/17 02:09:24;;;;;;;29.17;26.43;;;23.00;99.90;;;;;;5019437;28;20796;-51
2022/08/17 02:11:57;;;;;;;31.53;27.43;;;22.90;99.90;;;;;;5020201;28;20210;-51
2022/08/17 02:14:25;;;;;;;31.53;28.07;;;22.70;99.90;;;;;;5020457;28;20296;-50
2022/08/17 02:16:52;;;;;;;31.00;27.23;;;22.50;99.90;;;;;;5018804;28;20240;-51
2022/08/17 02:19:20;;;;;;;30.50;27.40;;;22.50;99.90;;;;;;5019984;28;20618;-51
2022/08/17 02:21:49;;;;;;;29.77;26.77;;;22.50;99.90;;;;;;5019262;28;20295;-51
2022/08/17 02:24:24;;;;;;;30.60;27.33;;;22.50;99.90;;;;;;5020495;28;20252;-51
2022/08/17 02:27:11;;;;;;;30.83;26.60;;;22.40;99.90;;;;;;5019363;28;20211;-50
2022/08/17 02:29:38;;;;;;;30.37;27.23;;;22.30;99.90;;;;;;5018290;28;20213;-51
2022/08/17 02:32:05;;;;;;;33.90;26.40;;;22.30;99.90;;;;;;5019846;28;20661;-52
2022/08/17 02:34:32;;;;;;;29.37;26.27;;;22.30;99.90;;;;;;5019531;28;20205;-49
2022/08/17 02:36:59;;;;;;;29.40;26.13;;;22.40;99.90;;;;;;5019891;28;20677;-50
2022/08/17 02:39:26;;;;;;;28.53;25.53;;;22.40;99.90;;;;;;5019196;28;20232;-49
2022/08/17 02:42:01;;;;;;;27.33;24.30;;;22.20;99.90;;;;;;5020137;28;20196;-51
2022/08/17 02:44:28;;;;;;;29.07;25.97;;;22.30;99.90;;;;;;5018614;28;20213;-52
2022/08/17 02:47:06;;;;;;;29.70;26.07;;;22.30;99.90;;;;;;5018932;28;20804;-52
2022/08/17 02:49:33;;;;;;;29.37;25.93;;;22.40;99.90;;;;;;5020214;28;20227;-51
2022/08/17 02:52:04;;;;;;;28.37;24.97;;;22.40;99.90;;;;;;5017606;28;20193;-51
2022/08/17 02:54:31;;;;;;;27.73;24.93;;;22.40;99.90;;;;;;5020242;28;20323;-50
2022/08/17 02:57:06;;;;;;;27.87;24.87;;;22.50;99.90;;;;;;5018857;28;20208;-52
2022/08/17 02:59:33;;;;;;;28.97;25.97;;;22.50;99.90;;;;;;5019407;28;20700;-52
2022/08/17 03:02:02;;;;;;;27.87;25.03;;;22.40;99.90;;;;;;5018882;28;20296;-50
2022/08/17 03:04:30;;;;;;;28.03;24.73;;;22.40;99.90;;;;;;5019777;28;20231;-50
2022/08/17 03:07:00;;;;;;;26.77;23.97;;;22.40;99.90;;;;;;5020081;28;20204;-51
2022/08/17 03:09:27;;;;;;;28.03;24.27;;;22.40;99.90;;;;;;5019820;28;20230;-49
2022/08/17 03:11:54;;;;;;;31.60;24.93;;;22.40;99.90;;;;;;5018911;28;20205;-51
2022/08/17 03:14:21;;;;;;;27.03;24.13;;;22.40;99.90;;;;;;5019842;28;20236;-50
2022/08/17 03:16:52;;;;;;;26.00;23.30;;;22.40;99.90;;;;;;5017687;28;20208;-49
2022/08/17 03:19:19;;;;;;;26.20;23.50;;;22.40;99.90;;;;;;5017474;28;20214;-49
2022/08/17 03:21:45;;;;;;;25.57;22.97;;;22.40;99.90;;;;;;5019163;28;20211;-50
2022/08/17 03:24:21;;;;;;;28.43;24.90;;;22.40;99.90;;;;;;5018736;28;20718;-51
2022/08/17 03:26:54;;;;;;;24.83;22.30;;;22.20;99.90;;;;;;5018620;28;20209;-52
2022/08/17 03:29:21;;;;;;;26.87;23.87;;;22.10;99.90;;;;;;5019702;28;20205;-49
2022/08/17 03:31:48;;;;;;;25.97;23.27;;;22.10;99.90;;;;;;5019412;28;20213;-52
2022/08/17 03:34:16;;;;;;;25.43;22.80;;;22.10;99.90;;;;;;5020302;28;20263;-51
2022/08/17 03:36:43;;;;;;;26.67;22.60;;;22.10;99.90;;;;;;5022994;28;20216;-52
2022/08/17 03:39:10;;;;;;;26.30;23.47;;;22.10;99.90;;;;;;5023537;28;20255;-50
2022/08/17 03:41:37;;;;;;;24.97;22.30;;;22.20;99.90;;;;;;5022942;28;20657;-51
2022/08/17 03:44:04;;;;;;;25.90;22.10;;;22.10;99.90;;;;;;5022225;28;20209;-50
2022/08/17 03:57:33;;;;;;;23.47;21.10;;;22.20;99.90;;;;;;5016924;28;20548;-51
2022/08/17 04:00:00;;;;;;;31.47;22.20;;;22.40;99.90;;;;;;5017919;28;20250;-50
2022/08/17 04:02:30;;;;;;;23.17;20.73;;;22.40;99.90;;;;;;5022115;28;20205;-52
2022/08/17 04:04:57;;;;;;;24.07;21.53;;;22.30;99.90;;;;;;5022628;28;20863;-51
2022/08/17 04:07:27;;;;;;;23.90;21.37;;;22.40;99.90;;;;;;5022473;28;20232;-50
2022/08/17 04:09:54;;;;;;;24.00;21.60;;;22.40;99.90;;;;;;5023540;28;20201;-50
2022/08/17 04:12:23;;;;;;;22.97;20.70;;;22.50;99.90;;;;;;5020288;28;20197;-51
2022/08/17 04:14:50;;;;;;;22.90;20.50;;;22.20;99.90;;;;;;5022736;28;20681;-51
2022/08/17 04:17:26;;;;;;;24.27;20.53;;;22.20;99.90;;;;;;5021354;28;20236;-50
2022/08/17 04:19:54;;;;;;;24.83;19.80;;;22.20;99.90;;;;;;5020452;28;20506;-50
2022/08/17 04:22:22;;;;;;;21.37;19.07;;;22.20;99.90;;;;;;5022411;28;20205;-51
2022/08/17 04:25:12;;;;;;;21.73;19.43;;;22.10;99.90;;;;;;5022651;28;20684;-51
2022/08/17 04:27:39;;;;;;;20.60;18.70;;;22.00;99.90;;;;;;5021064;28;20212;-52
2022/08/17 04:30:07;;;;;;;22.30;19.90;;;21.90;99.90;;;;;;5037047;28;20240;-50
2022/08/17 04:32:50;;;;;;;22.00;19.80;;;21.90;99.90;;;;;;5021432;28;20251;-51
2022/08/17 04:35:38;;;;;;;20.80;18.70;;;22.00;99.90;;;;;;5021617;28;20209;-50
2022/08/17 04:38:06;;;;;;;23.90;19.77;;;22.00;99.90;;;;;;5021545;28;20201;-50
2022/08/17 04:43:21;;;;;;;19.90;17.77;;;22.10;99.90;;;;;;5020717;28;20304;-50
2022/08/17 04:45:52;;;;;;;20.63;17.90;;;22.00;99.90;;;;;;5021813;28;20701;-51
2022/08/17 04:48:24;;;;;;;20.10;18.00;;;22.00;99.90;;;;;;5020712;28;20204;-50
2022/08/17 04:51:05;;;;;;;19.47;17.57;;;21.90;99.90;;;;;;5020255;28;20610;-49
2022/08/17 04:53:32;;;;;;;21.07;17.67;;;21.90;99.90;;;;;;5021557;28;20205;-50
2022/08/17 04:55:59;;;;;;;17.73;15.93;;;22.00;99.90;;;;;;5021253;28;20205;-49
2022/08/17 04:58:26;;;;;;;18.03;16.27;;;22.20;99.90;;;;;;5021221;28;20209;-51
2022/08/17 05:00:53;;;;;;;18.73;16.87;;;22.30;99.90;;;;;;5020821;28;20323;-51
2022/08/17 05:03:20;;;;;;;17.33;15.63;;;22.00;99.90;;;;;;5020448;28;20296;-51
2022/08/17 05:05:48;;;;;;;17.73;16.00;;;22.10;99.90;;;;;;5021491;28;20220;-50
2022/08/17 05:08:18;;;;;;;16.77;15.17;;;22.00;99.90;;;;;;5020484;28;20702;-51
2022/08/17 05:10:46;;;;;;;17.73;16.00;;;22.10;99.90;;;;;;5022077;28;20196;-51
2022/08/17 05:13:15;;;;;;;18.27;16.23;;;22.10;99.90;;;;;;5020615;28;20610;-50
2022/08/17 05:15:44;;;;;;;17.47;15.77;;;21.80;99.90;;;;;;5021732;28;20243;-51
2022/08/17 05:18:14;;;;;;;17.70;15.83;;;21.80;99.90;;;;;;5018123;28;20204;-51
2022/08/17 05:20:42;;;;;;;19.00;17.13;;;21.80;99.90;;;;;;5020829;28;20296;-50
2022/08/17 05:23:11;;;;;;;17.47;15.77;;;21.80;99.90;;;;;;5020188;28;20300;-49
2022/08/17 05:25:44;;;;;;;19.50;16.40;;;21.70;99.90;;;;;;5020190;28;20220;-51
2022/08/17 05:28:15;;;;;;;17.87;16.07;;;21.60;99.90;;;;;;5021076;28;20238;-55
2022/08/17 05:30:43;;;;;;;17.10;14.77;;;21.50;99.90;;;;;;5021228;28;20216;-51
2022/08/17 05:33:21;;;;;;;20.17;15.53;;;21.60;99.90;;;;;;5019653;28;20679;-51
2022/08/17 05:35:50;;;;;;;17.33;15.27;;;21.60;99.90;;;;;;5020995;28;20244;-51
2022/08/17 05:38:19;;;;;;;15.73;14.17;;;21.50;99.90;;;;;;5021775;28;20648;-51
2022/08/17 05:40:47;;;;;;;16.90;15.10;;;21.60;99.90;;;;;;5021639;28;20278;-50
2022/08/17 05:43:20;;;;;;;15.53;14.03;;;21.50;99.90;;;;;;5020649;28;20251;-50
2022/08/17 05:46:02;;;;;;;15.90;14.30;;;21.60;99.90;;;;;;5020527;28;20214;-50
2022/08/17 05:48:37;;;;;;;15.70;14.13;;;21.70;99.90;;;;;;5020935;28;20333;-50
2022/08/17 05:51:20;;;;;;;18.40;14.97;;;21.70;99.90;;;;;;5019563;28;20216;-50
2022/08/17 05:53:57;;;;;;;15.73;14.10;;;21.60;99.90;;;;;;5019792;28;20200;-51
2022/08/17 05:56:31;;;;;;;16.83;15.03;;;21.40;99.90;;;;;;5019514;28;20287;-50
2022/08/17 05:59:30;;;;;;;16.20;14.47;;;21.50;99.90;;;;;;5020682;28;20292;-52
2022/08/17 06:02:47;;;;;;;15.70;14.20;;;21.40;99.90;;;;;;5010433;28;20649;-50
2022/08/17 06:05:29;;;;;;;14.77;13.23;;;21.60;99.90;;;;;;4979067;28;20241;-50
2022/08/17 06:08:03;;;;;;;14.77;13.20;;;21.60;99.90;;;;;;4978655;28;20209;-50
2022/08/17 06:10:45;;;;;;;15.37;13.73;;;21.60;99.90;;;;;;5004742;28;20197;-50
2022/08/17 06:13:19;;;;;;;15.80;14.20;;;21.90;99.90;;;;;;5019676;28;20328;-51
2022/08/17 06:16:08;;;;;;;15.37;13.60;;;21.70;99.90;;;;;;5015549;28;20213;-51
2022/08/17 06:18:55;;;;;;;14.90;13.37;;;21.60;99.90;;;;;;5019782;28;20267;-51
2022/08/17 06:21:24;;;;;;;15.50;13.90;;;21.60;99.90;;;;;;5019033;28;20288;-51
2022/08/17 06:24:23;;;;;;;16.37;14.80;;;21.70;99.90;;;;;;5020061;28;20209;-50
2022/08/17 06:26:53;;;;;;;16.27;14.13;;;21.60;99.90;;;;;;5018390;28;20731;-51
2022/08/17 06:29:43;;;;;;;15.93;14.33;;;21.50;99.90;;;;;;5019335;28;20216;-52
2022/08/17 06:32:11;;;;;;;16.97;15.27;;;21.70;99.90;;;;;;5019579;28;20592;-52
2022/08/17 06:34:40;;;;;;;16.17;14.37;;;21.50;99.90;;;;;;5018427;28;20212;-52
2022/08/17 06:37:10;;;;;;;16.20;14.60;;;21.40;99.90;;;;;;5019722;28;20209;-51
2022/08/17 06:39:43;;;;;;;16.33;14.63;;;21.50;99.90;;;;;;5019976;28;20254;-51
2022/08/17 06:42:16;;;;;;;17.17;14.97;;;21.40;99.90;;;;;;5018859;28;20255;-51
2022/08/17 06:45:12;;;;;;;16.37;14.67;;;21.30;99.90;;;;;;5020271;28;20756;-50
2022/08/17 06:48:03;;;;;;;16.30;14.60;;;21.30;99.90;;;;;;5018773;28;20233;-52
2022/08/17 06:50:40;;;;;;;18.17;14.33;;;21.20;99.90;;;;;;5016637;28;20209;-51
2022/08/17 06:53:34;;;;;;;16.87;15.03;;;21.20;99.90;;;;;;5020199;28;20210;-49
2022/08/17 06:56:12;;;;;;;17.33;13.77;;;21.30;99.90;;;;;;5018995;28;20449;-50
2022/08/17 06:58:42;;;;;;;18.50;15.63;;;21.50;99.90;;;;;;5016983;28;20240;-50
2022/08/17 07:01:16;;;;;;;15.77;14.17;;;21.30;99.90;;;;;;5019323;28;20244;-51
2022/08/17 07:04:02;;;;;;;16.33;14.47;;;21.30;99.90;;;;;;5018958;28;20209;-50
2022/08/17 07:06:48;;;;;;;17.53;15.07;;;21.30;99.90;;;;;;5019947;28;20220;-50
2022/08/17 07:09:26;;;;;;;16.87;14.97;;;21.40;99.90;;;;;;5024061;28;20740;-50
2022/08/17 07:12:18;;;;;;;15.60;14.00;;;21.50;99.90;;;;;;5023686;28;20699;-50
2022/08/17 07:14:51;;;;;;;16.87;14.17;;;21.50;99.90;;;;;;5023211;28;20611;-51
2022/08/17 07:17:20;;;;;;;17.93;15.13;;;21.30;99.90;;;;;;5023373;28;20646;-51
2022/08/17 07:20:11;;;;;;;16.20;14.60;;;21.40;99.90;;;;;;5023018;28;20239;-52
2022/08/17 07:23:04;;;;;;;14.67;13.27;;;21.40;99.90;;;;;;5022797;28;20283;-50
2022/08/17 07:25:31;;;;;;;15.30;13.80;;;21.30;99.90;;;;;;5023021;28;20224;-51
2022/08/17 07:28:01;;;;;;;17.80;15.90;;;21.40;99.90;;;;;;5022025;28;20244;-51
2022/08/17 07:30:39;;;;;;;15.77;14.07;;;21.50;99.90;;;;;;5022635;28;20215;-51
2022/08/17 07:33:18;;;;;;;15.63;14.13;;;21.50;99.90;;;;;;5029275;28;20543;-51
2022/08/17 07:35:47;;;;;;;15.17;13.60;;;21.50;99.90;;;;;;5022556;28;20200;-50
2022/08/17 07:38:29;;;;;;;15.57;13.97;;;21.30;99.90;;;;;;5018920;28;20210;-50
2022/08/17 07:40:56;;;;;;;14.20;12.27;;;21.30;99.90;;;;;;5023461;28;20201;-49
2022/08/17 07:43:39;;;;;;;15.53;13.67;;;21.50;99.90;;;;;;5018569;28;20204;-51
2022/08/17 07:49:06;;;;;;;14.90;13.40;;;21.80;99.90;;;;;;5022268;28;20236;-51
2022/08/17 07:51:38;;;;;;;15.77;13.33;;;21.70;99.90;;;;;;5019101;28;20865;-51
2022/08/17 07:54:14;;;;;;;14.40;12.93;;;21.70;99.90;;;;;;5022556;28;20230;-49
2022/08/17 07:56:54;;;;;;;14.83;13.07;;;21.70;99.90;;;;;;5022536;28;20270;-49
2022/08/17 07:59:25;;;;;;;13.87;12.40;;;21.80;99.90;;;;;;5017519;28;20236;-50
2022/08/17 08:02:33;;;;;;;14.70;13.20;;;21.90;99.90;;;;;;5021670;28;20710;-53
2022/08/17 08:05:07;;;;;;;13.50;12.10;;;21.80;99.90;;;;;;5022381;28;20292;-51
2022/08/17 08:07:46;;;;;;;15.40;12.67;;;21.70;99.90;;;;;;5022338;28;20204;-50
2022/08/17 08:10:29;;;;;;;14.10;12.70;;;21.50;99.90;;;;;;5022270;28;20204;-50
2022/08/17 08:13:24;;;;;;;14.90;12.23;;;21.60;99.90;;;;;;5022767;28;20611;-50
2022/08/17 08:15:55;;;;;;;14.10;11.53;;;21.90;99.90;;;;;;5022267;28;20658;-50
2022/08/17 08:18:27;;;;;;;14.70;11.60;;;22.10;99.90;;;;;;5021369;28;20241;-51
2022/08/17 08:21:41;;;;;;;13.70;12.13;;;22.10;99.90;;;;;;5034267;28;20570;-50
2022/08/17 08:24:27;;;;;;;13.60;12.30;;;22.00;99.90;;;;;;5014201;28;20271;-50
2022/08/17 08:27:18;;;;;;;12.40;11.20;;;21.90;99.90;;;;;;5021887;28;20573;-49
2022/08/17 08:30:04;;;;;;;11.70;10.53;;;22.00;99.90;;;;;;5020768;28;20485;-52
2022/08/17 08:33:11;;;;;;;13.10;11.80;;;22.20;99.90;;;;;;5020980;28;20214;-52
2022/08/17 08:36:07;;;;;;;11.83;10.33;;;22.50;99.90;;;;;;5021227;28;20220;-51
2022/08/17 08:38:52;;;;;;;12.60;9.93;;;22.60;99.90;;;;;;5021891;28;20549;-51
2022/08/17 08:41:53;;;;;;;14.27;10.37;;;22.80;99.90;;;;;;5021323;28;20248;-51
2022/08/17 08:44:30;;;;;;;11.77;10.53;;;22.70;99.90;;;;;;5020892;28;20204;-51
2022/08/17 08:47:52;;;;;;;15.20;13.23;;;22.40;99.90;;;;;;5019740;28;20234;-52
2022/08/17 08:50:30;;;;;;;14.30;12.90;;;22.40;99.90;;;;;;5020681;28;20215;-50
2022/08/17 08:53:29;;;;;;;13.73;12.33;;;22.20;99.90;;;;;;5021626;28;20204;-51
2022/08/17 08:56:03;;;;;;;14.13;12.53;;;22.40;99.90;;;;;;5015823;28;20701;-51
2022/08/17 08:59:17;;;;;;;14.07;12.77;;;22.20;99.90;;;;;;5017684;28;20262;-51
2022/08/17 09:02:02;;;;;;;14.47;12.97;;;22.20;99.90;;;;;;5001931;28;20240;-50
2022/08/17 09:04:38;;;;;;;15.10;13.30;;;22.10;99.90;;;;;;5018757;28;20271;-50
2022/08/17 09:07:50;;;;;;;15.63;13.70;;;22.00;99.90;;;;;;5019827;28;20610;-50
2022/08/17 09:10:33;;;;;;;14.27;12.80;;;22.20;99.90;;;;;;5018838;28;20260;-49
2022/08/17 09:13:18;;;;;;;17.20;14.10;;;22.40;99.90;;;;;;5018788;28;20241;-49
2022/08/17 09:15:48;;;;;;;15.13;13.57;;;22.20;99.90;;;;;;5017143;28;20296;-50
2022/08/17 09:18:19;;;;;;;16.53;14.80;;;22.20;99.90;;;;;;5017790;28;20298;-50
2022/08/17 09:21:18;;;;;;;17.97;16.17;;;22.10;99.90;;;;;;5019023;28;20560;-50
2022/08/17 09:24:06;;;;;;;16.93;15.13;;;22.20;99.90;;;;;;5018201;28;20578;-50
2022/08/17 09:26:44;;;;;;;16.77;14.97;;;22.10;99.90;;;;;;5018188;28;20266;-51
2022/08/17 09:29:14;;;;;;;17.33;15.50;;;22.30;99.90;;;;;;5017615;28;20532;-49
2022/08/17 09:31:58;;;;;;;17.43;15.50;;;22.40;99.90;;;;;;5000732;28;20209;-50
2022/08/17 09:34:52;;;;;;;17.53;15.77;;;22.60;99.90;;;;;;5018606;28;20297;-49
2022/08/17 09:37:29;;;;;;;18.37;15.40;;;22.70;99.90;;;;;;5018856;28;20301;-50
2022/08/17 09:40:08;;;;;;;16.97;15.27;;;22.60;99.90;;;;;;5020145;28;20255;-49
2022/08/17 09:42:35;;;;;;;18.77;16.50;;;22.70;99.90;;;;;;5019135;28;20217;-50
2022/08/17 09:45:08;;;;;;;19.77;17.67;;;22.70;99.90;;;;;;5020397;28;20642;-50
2022/08/17 09:47:44;;;;;;;20.03;17.50;;;22.60;99.90;;;;;;5018805;28;20295;-51
2022/08/17 09:50:20;;;;;;;21.33;17.50;;;22.50;99.90;;;;;;5018432;28;20212;-50
2022/08/17 09:53:08;;;;;;;19.60;17.63;;;22.50;99.90;;;;;;5019628;28;20209;-51
2022/08/17 09:56:07;;;;;;;19.13;16.30;;;22.50;99.90;;;;;;5017894;28;20596;-50
2022/08/17 09:58:43;;;;;;;21.23;17.60;;;22.70;99.90;;;;;;5019908;28;20280;-51
2022/08/17 10:01:19;;;;;;;19.07;17.07;;;22.70;99.90;;;;;;5019087;28;20249;-52
2022/08/17 10:04:11;;;;;;;20.10;17.37;;;22.80;99.90;;;;;;5020227;28;20623;-53
2022/08/17 10:07:13;;;;;;;18.50;16.50;;;22.70;99.90;;;;;;5018910;28;20217;-52
2022/08/17 10:09:47;;;;;;;20.27;17.70;;;22.80;99.90;;;;;;5006093;28;20240;-50
2022/08/17 10:12:20;;;;;;;20.20;18.07;;;22.70;99.90;;;;;;5019290;28;20244;-50
2022/08/17 10:15:03;;;;;;;19.97;17.87;;;22.70;99.90;;;;;;5019775;28;20206;-51
2022/08/17 10:17:36;;;;;;;20.40;18.00;;;22.60;99.90;;;;;;5018886;28;20218;-52
2022/08/17 10:20:09;;;;;;;22.57;17.90;;;22.70;99.90;;;;;;5021068;28;20204;-50
2022/08/17 10:28:39;;;;;;;25.53;20.50;;;22.80;99.90;;;;;;5019393;28;20201;-53
2022/08/17 10:31:09;;;;;;;23.20;20.50;;;22.80;99.90;;;;;;5018054;28;20240;-52
2022/08/17 10:34:17;;;;;;;23.33;20.13;;;22.60;99.90;;;;;;5019702;28;20516;-51
2022/08/17 10:37:08;;;;;;;23.93;21.40;;;22.40;99.90;;;;;;5019774;28;20205;-51
2022/08/17 10:39:41;;;;;;;24.43;21.57;;;22.50;99.90;;;;;;5018369;28;20211;-52
2022/08/17 10:42:54;;;;;;;27.93;22.50;;;22.50;99.90;;;;;;5019454;28;20545;-50
2022/08/17 10:45:30;;;;;;;25.80;23.10;;;22.50;99.90;;;;;;5018936;28;20209;-51
2022/08/17 10:48:05;;;;;;;27.63;23.23;;;22.40;99.90;;;;;;5018955;28;20224;-50
2022/08/17 10:50:48;;;;;;;25.17;22.37;;;22.40;99.90;;;;;;5019311;28;20304;-51
2022/08/17 10:53:33;;;;;;;26.50;23.80;;;22.20;99.90;;;;;;5020237;28;20557;-50
2022/08/17 10:56:13;;;;;;;27.43;23.67;;;22.00;99.90;;;;;;5019105;28;20266;-50
2022/08/17 10:58:56;;;;;;;25.43;22.77;;;21.90;99.90;;;;;;5019178;28;20974;-50
2022/08/17 11:01:36;;;;;;;25.63;22.83;;;21.90;99.90;;;;;;5014776;28;20243;-51
2022/08/17 11:04:37;;;;;;;25.40;22.63;;;21.90;99.90;;;;;;5019176;28;20212;-50
2022/08/17 11:07:16;;;;;;;25.60;22.83;;;21.70;99.90;;;;;;5019399;28;20358;-50
2022/08/17 11:10:17;;;;;;;26.77;23.37;;;21.70;99.90;;;;;;5018612;28;20287;-50
2022/08/17 11:12:53;;;;;;;25.60;22.93;;;21.80;99.90;;;;;;5018255;28;20250;-50
2022/08/17 11:15:44;;;;;;;24.47;21.70;;;21.90;99.90;;;;;;5018772;28;20203;-50
2022/08/17 11:18:45;;;;;;;27.10;22.87;;;21.90;99.90;;;;;;5018888;28;20212;-50
2022/08/17 11:21:21;;;;;;;27.07;21.93;;;21.80;99.90;;;;;;5017295;28;20237;-51
2022/08/17 11:24:00;;;;;;;26.33;23.53;;;21.60;99.90;;;;;;5020071;28;20208;-50
2022/08/17 11:26:33;;;;;;;26.50;23.70;;;21.40;99.90;;;;;;5019577;28;20575;-50
2022/08/17 11:29:07;;;;;;;26.40;23.07;;;21.30;99.90;;;;;;5016092;28;20285;-51
2022/08/17 11:31:41;;;;;;;26.90;21.90;;;21.50;99.90;;;;;;5014818;28;20579;-50
2022/08/17 11:34:25;;;;;;;25.00;22.20;;;21.60;99.90;;;;;;5018699;28;20291;-51
2022/08/17 11:37:13;;;;;;;27.17;22.73;;;21.30;99.90;;;;;;5014446;28;20235;-50
2022/08/17 11:40:10;;;;;;;22.80;20.40;;;21.30;99.90;;;;;;5013332;28;20296;-50
2022/08/17 11:43:12;;;;;;;25.57;21.77;;;21.40;99.90;;;;;;5017242;28;20216;-51
2022/08/17 11:46:03;;;;;;;23.57;21.20;;;21.30;99.90;;;;;;5018287;28;20216;-51
2022/08/17 11:51:58;;;;;;;22.50;19.97;;;21.00;99.90;;;;;;5018664;28;20208;-51
2022/08/17 11:54:29;;;;;;;23.70;21.33;;;21.00;99.90;;;;;;5020504;28;20729;-51
2022/08/17 11:57:25;;;;;;;25.63;21.67;;;21.10;99.90;;;;;;5021899;28;20210;-50
2022/08/17 12:00:07;;;;;;;22.93;20.67;;;21.20;99.90;;;;;;5022550;28;20278;-51
2022/08/17 12:02:37;;;;;;;22.20;19.87;;;21.30;99.90;;;;;;5021533;28;20249;-50
2022/08/17 12:05:24;;;;;;;22.73;20.23;;;21.20;99.90;;;;;;5021724;28;20607;-51
2022/08/17 12:08:11;;;;;;;23.13;20.80;;;21.20;99.90;;;;;;5022945;28;20240;-51
2022/08/17 12:10:53;;;;;;;22.77;19.40;;;21.20;99.90;;;;;;5022255;28;20208;-51
2022/08/17 12:13:22;;;;;;;22.03;19.63;;;21.30;99.90;;;;;;5021320;28;20238;-51
2022/08/17 12:15:59;;;;;;;21.83;19.53;;;21.40;99.90;;;;;;5021960;28;20212;-52
2022/08/17 12:18:30;;;;;;;23.87;20.43;;;21.20;99.90;;;;;;5021435;28;20678;-50
2022/08/17 12:21:29;;;;;;;25.43;19.90;;;21.00;99.90;;;;;;5018441;28;20271;-49
2022/08/17 12:24:06;;;;;;;21.27;19.07;;;21.00;99.90;;;;;;5022268;28;20560;-51
2022/08/17 12:26:34;;;;;;;21.50;18.63;;;21.10;99.90;;;;;;5021488;28;20308;-52
2022/08/17 12:29:14;;;;;;;21.03;18.57;;;21.20;99.90;;;;;;5020432;28;20684;-52
2022/08/17 12:32:02;;;;;;;19.83;17.70;;;21.10;99.90;;;;;;5021439;28;20602;-50
2022/08/17 12:34:37;;;;;;;20.10;18.10;;;21.20;99.90;;;;;;5021050;28;20204;-53
2022/08/17 12:37:19;;;;;;;20.20;18.10;;;21.20;99.90;;;;;;5021527;28;20213;-52
2022/08/17 12:40:02;;;;;;;17.93;15.93;;;21.10;99.90;;;;;;5021241;28;20208;-52
2022/08/17 12:42:36;;;;;;;20.07;18.00;;;20.80;99.90;;;;;;5020868;28;20619;-52
2022/08/17 12:45:06;;;;;;;19.73;17.63;;;20.50;99.90;;;;;;5021407;28;20254;-52
2022/08/17 12:47:36;;;;;;;18.87;17.07;;;20.50;99.90;;;;;;5020693;28;20221;-52
2022/08/17 12:50:09;;;;;;;19.90;17.60;;;20.70;99.90;;;;;;5021273;28;20351;-51
2022/08/17 12:52:56;;;;;;;18.57;16.70;;;20.60;99.90;;;;;;5022157;28;20200;-51
2022/08/17 12:55:29;;;;;;;19.10;16.90;;;20.70;99.90;;;;;;5020645;28;20724;-49
2022/08/17 12:58:00;;;;;;;19.13;17.13;;;20.90;99.90;;;;;;5021284;28;20213;-50
2022/08/17 13:00:33;;;;;;;19.20;17.03;;;20.90;99.90;;;;;;5021370;28;20279;-50
2022/08/17 13:03:08;;;;;;;19.67;17.67;;;20.70;99.90;;;;;;5021264;28;20214;-49
2022/08/17 13:05:51;;;;;;;19.33;17.30;;;20.60;99.90;;;;;;5020429;28;20296;-50
2022/08/17 13:08:34;;;;;;;18.87;16.87;;;20.70;99.90;;;;;;5020560;28;20228;-51
2022/08/17 13:11:03;;;;;;;20.20;18.03;;;20.60;99.90;;;;;;5021100;28;20212;-51
2022/08/17 13:13:34;;;;;;;19.67;17.53;;;20.90;99.90;;;;;;5019846;28;20657;-51
2022/08/17 13:16:16;;;;;;;20.27;17.93;;;20.80;99.90;;;;;;5021806;28;20554;-50
2022/08/17 13:19:05;;;;;;;21.60;19.30;;;20.70;99.90;;;;;;5021532;28;20647;-51
2022/08/17 13:21:34;;;;;;;20.40;18.30;;;20.90;99.90;;;;;;5020185;28;20251;-52
2022/08/17 13:24:10;;;;;;;20.00;17.60;;;21.00;99.90;;;;;;5020667;28;20578;-51
2022/08/17 13:26:40;;;;;;;20.77;18.57;;;21.10;99.90;;;;;;5021020;28;20230;-50
2022/08/17 13:29:23;;;;;;;20.93;18.20;;;21.00;99.90;;;;;;5022381;28;20659;-50
2022/08/17 13:32:15;;;;;;;20.63;18.23;;;21.00;99.90;;;;;;5020818;28;20659;-52
2022/08/17 13:34:50;;;;;;;21.73;18.33;;;21.00;99.90;;;;;;5020237;28;20275;-51
2022/08/17 13:37:37;;;;;;;20.53;18.43;;;20.70;99.90;;;;;;5020443;28;20243;-50
2022/08/17 13:40:06;;;;;;;21.53;19.23;;;20.50;99.90;;;;;;5020775;28;20204;-52
2022/08/17 13:42:51;;;;;;;22.20;19.90;;;20.50;99.90;;;;;;5018781;28;20201;-50
2022/08/17 13:45:31;;;;;;;21.93;19.30;;;20.60;99.90;;;;;;5020550;28;20240;-51